Time;durP1;ratioP1;P1;durP2;ratioP2;P2;SDS_P1;SDS_P2;PMS_P1;PMS_P2;Temp;Humidity;BMP_temperature;BMP_pressure;BME280_temperature;BME280_humidity;BME280_pressure;Samples;Min_cycle;Max_cycle;Signal;HPM_P1;HPM_P2
2023/07/16 00:00:52;;;;;;;8.15;2.60;;;16.80;99.90;;;;;;5042730;28;20045;-67
2023/07/16 00:03:17;;;;;;;9.63;2.13;;;16.80;99.90;;;;;;5049820;28;20067;-67
2023/07/16 00:05:43;;;;;;;9.90;2.55;;;16.80;99.90;;;;;;5055992;28;20120;-68
2023/07/16 00:08:09;;;;;;;7.95;2.13;;;16.70;99.90;;;;;;5039764;28;20043;-67
2023/07/16 00:10:38;;;;;;;7.97;1.75;;;16.70;99.90;;;;;;5048046;28;20037;-67
2023/07/16 00:13:04;;;;;;;5.90;1.67;;;16.60;99.90;;;;;;5052857;28;20068;-67
2023/07/16 00:15:30;;;;;;;5.95;1.58;;;16.60;99.90;;;;;;5051612;28;20041;-67
2023/07/16 00:17:56;;;;;;;7.75;1.45;;;16.60;99.90;;;;;;5039867;28;20479;-67
2023/07/16 00:20:25;;;;;;;7.85;2.03;;;16.60;99.90;;;;;;5056044;28;20048;-67
2023/07/16 00:22:52;;;;;;;7.50;1.90;;;16.60;99.90;;;;;;5033086;28;20106;-67
2023/07/16 00:25:18;;;;;;;6.65;2.13;;;16.60;99.90;;;;;;5052162;28;20318;-67
2023/07/16 00:27:43;;;;;;;7.63;2.33;;;16.60;99.90;;;;;;5053823;28;20037;-69
2023/07/16 00:30:09;;;;;;;6.15;1.75;;;16.60;99.90;;;;;;5024900;28;20194;-67
2023/07/16 00:32:35;;;;;;;3.83;1.60;;;16.60;99.90;;;;;;5051125;28;20048;-67
2023/07/16 00:35:01;;;;;;;6.47;1.83;;;16.60;99.90;;;;;;5055278;28;20452;-67
2023/07/16 00:37:27;;;;;;;;;;;16.50;99.90;;;;;;5038742;28;20045;-67
2023/07/16 00:39:53;;;;;;;11.13;2.10;;;16.50;99.90;;;;;;5051446;28;19916;-67
2023/07/16 00:42:19;;;;;;;8.00;2.20;;;16.50;99.90;;;;;;5047129;28;20047;-67
2023/07/16 00:44:44;;;;;;;7.10;1.70;;;16.60;99.90;;;;;;5051902;28;20071;-67
2023/07/16 00:47:12;;;;;;;4.63;1.50;;;16.50;99.90;;;;;;5048258;28;20126;-67
2023/07/16 00:49:38;;;;;;;3.72;1.88;;;16.50;99.90;;;;;;5040050;28;20132;-67
2023/07/16 00:52:08;;;;;;;5.72;1.90;;;16.60;99.90;;;;;;5043088;28;20119;-67
2023/07/16 00:54:33;;;;;;;8.98;1.80;;;16.60;99.90;;;;;;5034632;28;20143;-67
2023/07/16 00:56:59;;;;;;;4.53;2.03;;;16.60;99.90;;;;;;5031913;28;20166;-68
2023/07/16 00:59:25;;;;;;;8.95;1.83;;;16.60;99.90;;;;;;5039603;28;20056;-67
2023/07/16 01:01:51;;;;;;;10.60;2.30;;;16.60;99.90;;;;;;5036558;28;20118;-67
2023/07/16 01:04:17;;;;;;;10.52;2.05;;;16.70;99.90;;;;;;5048302;28;20101;-67
2023/07/16 01:06:53;;;;;;;11.35;2.03;;;16.70;99.90;;;;;;5033988;28;20463;-67
2023/07/16 01:09:20;;;;;;;9.85;2.22;;;16.70;99.90;;;;;;5037221;28;20049;-67
2023/07/16 01:11:47;;;;;;;9.00;1.77;;;16.70;99.90;;;;;;5051180;28;20131;-67
2023/07/16 01:14:16;;;;;;;7.78;2.03;;;16.70;99.90;;;;;;5046040;28;20120;-67
2023/07/16 01:16:42;;;;;;;12.23;2.83;;;16.70;99.90;;;;;;5046996;28;20107;-67
2023/07/16 01:19:09;;;;;;;7.05;1.90;;;16.70;99.90;;;;;;5039377;28;20041;-68
2023/07/16 01:22:01;;;;;;;6.90;1.45;;;16.70;99.90;;;;;;5056277;28;20032;-66
2023/07/16 01:24:33;;;;;;;7.22;2.13;;;16.80;99.90;;;;;;5046746;28;20045;-67
2023/07/16 01:27:52;;;;;;;5.15;2.28;;;16.80;99.90;;;;;;5048542;28;20095;-67
2023/07/16 01:30:19;;;;;;;9.20;1.90;;;16.80;99.90;;;;;;4930041;29;20043;-67
2023/07/16 01:32:48;;;;;;;8.15;1.77;;;16.80;99.90;;;;;;4936528;28;20069;-66
2023/07/16 01:35:14;;;;;;;9.45;1.77;;;16.70;99.90;;;;;;5003983;28;20191;-67
2023/07/16 01:37:41;;;;;;;;;;;16.80;99.90;;;;;;5052197;28;20044;-67
2023/07/16 01:40:09;;;;;;;11.60;1.73;;;16.80;99.90;;;;;;5049207;28;20294;-67
2023/07/16 01:42:34;;;;;;;5.10;1.70;;;16.80;99.90;;;;;;5058523;28;20261;-67
2023/07/16 01:45:00;;;;;;;5.70;1.73;;;16.80;99.90;;;;;;5050200;28;20511;-67
2023/07/16 01:47:29;;;;;;;10.85;2.13;;;16.80;99.90;;;;;;5080234;22;20037;-68
2023/07/16 01:49:55;;;;;;;9.75;2.63;;;16.80;99.90;;;;;;5018172;28;20053;-69
2023/07/16 01:52:21;;;;;;;4.88;1.50;;;16.80;99.90;;;;;;5007597;28;20391;-69
2023/07/16 01:54:47;;;;;;;7.63;1.73;;;16.80;99.90;;;;;;5012920;28;20037;-69
2023/07/16 01:57:13;;;;;;;;;;;16.80;99.90;;;;;;5027728;28;20045;-69
2023/07/16 01:59:38;;;;;;;6.03;1.10;;;16.80;99.90;;;;;;5043428;28;20300;-69
2023/07/16 02:02:05;;;;;;;6.65;1.88;;;16.70;99.90;;;;;;5042916;28;20047;-69
2023/07/16 02:04:30;;;;;;;7.63;1.38;;;16.70;99.90;;;;;;5043103;28;20093;-68
2023/07/16 02:06:56;;;;;;;7.10;1.63;;;16.80;99.90;;;;;;5041633;28;20471;-69
2023/07/16 02:09:22;;;;;;;4.03;1.30;;;16.70;99.90;;;;;;5039974;28;20692;-69
2023/07/16 02:11:48;;;;;;;7.40;1.77;;;16.70;99.90;;;;;;5019332;28;20064;-69
2023/07/16 02:14:15;;;;;;;6.07;1.67;;;16.70;99.90;;;;;;5019441;28;20045;-69
2023/07/16 02:16:41;;;;;;;4.60;1.70;;;16.70;99.90;;;;;;5045084;28;20072;-68
2023/07/16 02:19:07;;;;;;;4.13;1.50;;;16.70;99.90;;;;;;5029402;28;20064;-68
2023/07/16 02:21:33;;;;;;;4.30;1.55;;;16.70;99.90;;;;;;5048456;28;20036;-68
2023/07/16 02:23:59;;;;;;;5.78;1.55;;;16.70;99.90;;;;;;5039608;28;20635;-68
2023/07/16 02:26:25;;;;;;;5.53;1.90;;;16.70;99.90;;;;;;5042311;28;20076;-68
2023/07/16 02:28:50;;;;;;;5.07;1.73;;;16.70;99.90;;;;;;5048194;28;20036;-69
2023/07/16 02:31:16;;;;;;;9.73;2.00;;;16.70;99.90;;;;;;5031499;28;20055;-69
2023/07/16 02:33:42;;;;;;;8.07;2.58;;;16.70;99.90;;;;;;5034130;28;20049;-68
2023/07/16 02:36:08;;;;;;;5.22;2.28;;;16.70;99.90;;;;;;5028844;28;20116;-69
2023/07/16 02:38:33;;;;;;;6.88;2.42;;;16.60;99.90;;;;;;5038355;28;20044;-69
2023/07/16 02:40:59;;;;;;;9.98;3.67;;;16.70;99.90;;;;;;5041833;28;20036;-69
2023/07/16 02:43:25;;;;;;;5.90;2.20;;;16.60;99.90;;;;;;5029848;28;20043;-68
2023/07/16 02:45:51;;;;;;;9.57;2.40;;;16.60;99.90;;;;;;5011086;28;20071;-69
2023/07/16 02:48:16;;;;;;;5.35;2.20;;;16.60;99.90;;;;;;5040054;28;20041;-69
2023/07/16 02:50:42;;;;;;;8.68;2.17;;;16.60;99.90;;;;;;5042106;28;20499;-69
2023/07/16 02:53:08;;;;;;;6.97;2.30;;;16.60;99.90;;;;;;5047606;28;20029;-69
2023/07/16 02:55:37;;;;;;;5.20;1.88;;;16.60;99.90;;;;;;5029816;28;20057;-69
2023/07/16 02:58:04;;;;;;;7.13;2.20;;;16.60;99.90;;;;;;5021567;28;20445;-68
2023/07/16 03:00:34;;;;;;;10.32;2.58;;;16.60;99.90;;;;;;5029821;28;20053;-69
2023/07/16 03:03:00;;;;;;;9.23;2.95;;;16.50;99.90;;;;;;5047539;28;20206;-69
2023/07/16 03:05:26;;;;;;;;;;;16.50;99.90;;;;;;5029179;28;20041;-69
2023/07/16 03:07:52;;;;;;;6.55;2.03;;;16.50;99.90;;;;;;5027846;28;19982;-69
2023/07/16 03:10:18;;;;;;;9.82;2.15;;;16.50;99.90;;;;;;5044519;28;20071;-69
2023/07/16 03:12:43;;;;;;;8.40;2.45;;;16.50;99.90;;;;;;5044846;28;20049;-68
2023/07/16 03:15:10;;;;;;;7.63;2.67;;;16.50;99.90;;;;;;5043061;28;20033;-69
2023/07/16 03:17:35;;;;;;;;;;;16.50;99.90;;;;;;5047958;28;20102;-68
2023/07/16 03:20:04;;;;;;;7.50;2.20;;;16.50;99.90;;;;;;5041606;28;20015;-68
2023/07/16 03:22:30;;;;;;;6.93;2.60;;;16.50;99.90;;;;;;5029722;28;20356;-69
2023/07/16 03:24:55;;;;;;;7.55;2.42;;;16.50;99.90;;;;;;5038266;28;20068;-69
2023/07/16 03:27:21;;;;;;;10.52;2.30;;;16.50;99.90;;;;;;5038483;28;20462;-68
2023/07/16 03:29:47;;;;;;;8.88;2.33;;;16.50;99.90;;;;;;5045991;28;20099;-69
2023/07/16 03:32:13;;;;;;;9.77;3.15;;;16.50;99.90;;;;;;5051174;28;20044;-69
2023/07/16 03:34:38;;;;;;;10.20;3.28;;;16.50;99.90;;;;;;5025059;28;20100;-68
2023/07/16 03:37:04;;;;;;;7.90;3.13;;;16.50;99.90;;;;;;5032949;28;20618;-69
2023/07/16 03:39:30;;;;;;;7.38;2.75;;;16.50;99.90;;;;;;5032681;28;20479;-69
2023/07/16 03:41:55;;;;;;;10.38;3.25;;;16.50;99.90;;;;;;5048970;28;20419;-69
2023/07/16 03:44:21;;;;;;;7.00;2.97;;;16.50;99.90;;;;;;5023808;28;20430;-68
2023/07/16 03:46:47;;;;;;;8.13;2.38;;;16.60;99.90;;;;;;5033142;28;20041;-69
2023/07/16 03:49:13;;;;;;;7.97;3.10;;;16.50;99.90;;;;;;5050753;28;20110;-69
2023/07/16 03:51:38;;;;;;;5.55;2.72;;;16.50;99.90;;;;;;5029408;28;20249;-68
2023/07/16 03:54:04;;;;;;;8.45;3.00;;;16.50;99.90;;;;;;5026565;28;20505;-69
2023/07/16 03:56:30;;;;;;;7.50;2.83;;;16.50;99.90;;;;;;5032560;28;20072;-68
2023/07/16 03:58:55;;;;;;;6.40;2.40;;;16.50;99.90;;;;;;5026978;28;20167;-69
2023/07/16 04:01:21;;;;;;;9.10;3.13;;;16.50;99.90;;;;;;5040843;28;20037;-68
2023/07/16 04:03:47;;;;;;;10.43;3.40;;;16.50;99.90;;;;;;5047568;28;20056;-69
2023/07/16 04:06:14;;;;;;;13.10;2.67;;;16.60;99.90;;;;;;5032874;28;20037;-69
2023/07/16 04:08:40;;;;;;;9.25;3.25;;;16.60;99.90;;;;;;5043071;28;20414;-69
2023/07/16 04:11:06;;;;;;;10.05;2.75;;;16.60;99.90;;;;;;5024602;28;20470;-69
2023/07/16 04:13:32;;;;;;;7.57;3.13;;;16.60;99.90;;;;;;5045745;28;20067;-69
2023/07/16 04:15:58;;;;;;;7.80;3.42;;;16.60;99.90;;;;;;5049983;28;20491;-69
2023/07/16 04:18:27;;;;;;;8.75;3.30;;;16.60;99.90;;;;;;5047207;28;20457;-69
2023/07/16 04:20:53;;;;;;;7.43;3.25;;;16.60;99.90;;;;;;5050038;28;20372;-68
2023/07/16 04:23:19;;;;;;;8.18;3.00;;;16.70;99.90;;;;;;5029197;28;20156;-69
2023/07/16 04:25:45;;;;;;;8.70;3.05;;;16.70;99.90;;;;;;5028855;28;20055;-68
2023/07/16 04:28:12;;;;;;;12.38;4.22;;;16.70;99.90;;;;;;5042412;28;20490;-68
2023/07/16 04:30:38;;;;;;;5.90;3.08;;;16.70;99.90;;;;;;5028471;28;20110;-69
2023/07/16 04:33:04;;;;;;;11.10;4.10;;;16.80;99.90;;;;;;5042360;28;20045;-69
2023/07/16 04:35:30;;;;;;;6.43;2.92;;;16.80;99.90;;;;;;5039934;28;20510;-69
2023/07/16 04:37:55;;;;;;;10.38;3.13;;;16.80;99.90;;;;;;5043845;28;20314;-69
2023/07/16 04:40:21;;;;;;;9.15;3.55;;;16.80;99.90;;;;;;5042886;28;20040;-69
2023/07/16 04:42:47;;;;;;;6.43;3.10;;;16.80;99.90;;;;;;5048296;28;20044;-69
2023/07/16 04:45:13;;;;;;;17.35;3.42;;;16.80;99.90;;;;;;5024906;28;20053;-68
2023/07/16 04:47:39;;;;;;;12.85;3.65;;;16.90;99.90;;;;;;5050031;28;20037;-68
2023/07/16 04:50:05;;;;;;;10.27;4.05;;;16.90;99.90;;;;;;5049165;28;20227;-69
2023/07/16 04:52:31;;;;;;;8.05;3.28;;;16.90;99.90;;;;;;5023261;28;20054;-69
2023/07/16 04:54:57;;;;;;;7.25;3.38;;;17.00;99.90;;;;;;5031343;28;20102;-69
2023/07/16 04:57:23;;;;;;;17.58;3.63;;;17.00;99.90;;;;;;5031631;28;20495;-69
2023/07/16 04:59:48;;;;;;;10.93;3.58;;;17.00;99.90;;;;;;5049002;28;20455;-69
2023/07/16 05:02:16;;;;;;;10.25;4.13;;;17.00;99.90;;;;;;5043724;28;20519;-68
2023/07/16 05:04:44;;;;;;;8.25;3.70;;;17.10;99.90;;;;;;5031552;28;20056;-69
2023/07/16 05:07:10;;;;;;;9.35;3.78;;;17.10;99.90;;;;;;5049078;28;20043;-69
2023/07/16 05:09:35;;;;;;;11.07;3.78;;;17.10;99.90;;;;;;5048031;28;20525;-69
2023/07/16 05:12:02;;;;;;;15.25;3.65;;;17.20;99.90;;;;;;5031225;28;20056;-69
2023/07/16 05:14:28;;;;;;;6.03;3.00;;;17.20;99.90;;;;;;5022914;28;20102;-69
2023/07/16 05:16:55;;;;;;;9.70;3.28;;;17.20;99.90;;;;;;5047800;28;20472;-68
2023/07/16 05:19:21;;;;;;;10.82;3.70;;;17.30;99.90;;;;;;5042106;28;20041;-69
2023/07/16 05:21:47;;;;;;;5.32;2.80;;;17.20;99.90;;;;;;5041721;28;20454;-69
2023/07/16 05:24:12;;;;;;;10.32;3.72;;;17.20;99.90;;;;;;5022703;28;20237;-68
2023/07/16 05:26:38;;;;;;;10.32;3.60;;;17.20;99.90;;;;;;5043018;28;20068;-69
2023/07/16 05:29:04;;;;;;;12.52;2.97;;;17.20;99.90;;;;;;5040272;28;20407;-68
2023/07/16 05:31:30;;;;;;;11.52;2.88;;;17.20;99.90;;;;;;5030891;28;20045;-68
2023/07/16 05:33:55;;;;;;;11.25;3.67;;;17.20;99.90;;;;;;5023275;28;20045;-68
2023/07/16 05:36:21;;;;;;;10.05;3.65;;;17.20;99.90;;;;;;5027589;28;20487;-68
2023/07/16 05:38:47;;;;;;;11.13;2.67;;;17.20;99.90;;;;;;5023542;28;20120;-69
2023/07/16 05:41:13;;;;;;;8.60;3.78;;;17.20;99.90;;;;;;5029899;28;20138;-69
2023/07/16 05:43:38;;;;;;;14.70;3.03;;;17.20;99.90;;;;;;5040965;28;20507;-68
2023/07/16 05:46:05;;;;;;;7.18;2.92;;;17.20;99.90;;;;;;5047158;28;20193;-68
2023/07/16 05:48:31;;;;;;;;;;;17.30;99.90;;;;;;5026416;28;20045;-69
2023/07/16 05:50:56;;;;;;;6.22;2.83;;;17.30;99.90;;;;;;5021418;28;19921;-69
2023/07/16 05:53:22;;;;;;;8.07;2.70;;;17.30;99.90;;;;;;5037727;28;20077;-69
2023/07/16 05:55:49;;;;;;;4.85;2.35;;;17.30;99.90;;;;;;5044871;28;20045;-68
2023/07/16 05:58:16;;;;;;;8.70;3.25;;;17.30;99.90;;;;;;5027666;28;20045;-68
2023/07/16 06:00:41;;;;;;;8.75;3.13;;;17.30;99.90;;;;;;5025846;28;20135;-69
2023/07/16 06:03:07;;;;;;;8.32;3.00;;;17.30;99.90;;;;;;5038452;28;20121;-69
2023/07/16 06:05:34;;;;;;;11.57;3.58;;;17.20;99.90;;;;;;5043223;28;20566;-69
2023/07/16 06:08:01;;;;;;;7.65;2.75;;;17.20;99.90;;;;;;5046218;28;20044;-68
2023/07/16 06:10:27;;;;;;;7.78;3.05;;;17.20;99.90;;;;;;5027416;28;20384;-69
2023/07/16 06:12:52;;;;;;;;;;;17.20;99.90;;;;;;5041745;28;20036;-69
2023/07/16 06:15:18;;;;;;;10.32;3.33;;;17.10;99.90;;;;;;5029788;28;19926;-68
2023/07/16 06:17:44;;;;;;;11.73;3.30;;;17.10;99.90;;;;;;5048121;28;20511;-69
2023/07/16 06:20:10;;;;;;;9.32;3.03;;;17.10;99.90;;;;;;5028222;28;20106;-69
2023/07/16 06:22:36;;;;;;;9.80;3.15;;;17.00;99.90;;;;;;5024831;28;20045;-69
2023/07/16 06:25:02;;;;;;;7.55;3.08;;;17.00;99.90;;;;;;5039296;28;20055;-68
2023/07/16 06:27:28;;;;;;;8.02;3.40;;;17.10;99.90;;;;;;5042564;28;20499;-69
2023/07/16 06:29:53;;;;;;;13.40;3.40;;;17.10;99.90;;;;;;5045698;28;20055;-69
2023/07/16 06:32:20;;;;;;;6.93;3.38;;;17.10;99.90;;;;;;5022644;28;20056;-69
2023/07/16 06:34:46;;;;;;;12.27;3.55;;;17.20;99.90;;;;;;5040574;28;20087;-68
2023/07/16 06:37:11;;;;;;;14.00;3.90;;;17.20;99.90;;;;;;5029770;28;20502;-70
2023/07/16 06:39:37;;;;;;;15.20;3.60;;;17.20;99.90;;;;;;5035808;28;20499;-68
2023/07/16 06:42:03;;;;;;;7.70;3.00;;;17.20;99.90;;;;;;5003538;28;20045;-69
2023/07/16 06:44:29;;;;;;;7.35;3.40;;;17.10;99.90;;;;;;5041302;28;20037;-68
2023/07/16 06:46:54;;;;;;;6.95;3.58;;;17.10;99.90;;;;;;5044193;28;20451;-68
2023/07/16 06:49:21;;;;;;;8.35;3.90;;;17.10;99.90;;;;;;5047481;28;20120;-69
2023/07/16 06:51:47;;;;;;;9.63;4.05;;;17.10;99.90;;;;;;5040363;28;20038;-69
2023/07/16 06:54:13;;;;;;;9.90;4.15;;;17.10;99.90;;;;;;5027042;28;20048;-69
2023/07/16 06:56:39;;;;;;;11.43;4.25;;;17.20;99.90;;;;;;5023620;28;20049;-69
2023/07/16 06:59:05;;;;;;;11.02;3.67;;;17.20;99.90;;;;;;5012931;28;20049;-69
2023/07/16 07:01:30;;;;;;;9.45;3.75;;;17.30;99.90;;;;;;5022264;28;20045;-69
2023/07/16 07:03:56;;;;;;;11.75;3.75;;;17.40;99.90;;;;;;5029583;28;20049;-69
2023/07/16 07:06:22;;;;;;;9.57;3.30;;;17.40;99.90;;;;;;5026701;28;20076;-69
2023/07/16 07:08:48;;;;;;;8.80;2.85;;;17.50;99.90;;;;;;5028709;28;20138;-68
2023/07/16 07:11:13;;;;;;;10.25;3.35;;;17.50;99.90;;;;;;5025556;28;20044;-69
2023/07/16 07:13:39;;;;;;;20.75;2.92;;;17.50;99.90;;;;;;5033649;28;20125;-68
2023/07/16 07:16:05;;;;;;;12.07;4.43;;;17.60;99.90;;;;;;5042839;28;20045;-69
2023/07/16 07:18:31;;;;;;;13.82;4.10;;;17.60;99.90;;;;;;5046312;28;20049;-69
2023/07/16 07:20:57;;;;;;;7.70;3.30;;;17.60;99.90;;;;;;5048657;28;20066;-69
2023/07/16 07:23:22;;;;;;;10.77;3.85;;;17.60;99.90;;;;;;5043105;28;20051;-69
2023/07/16 07:25:52;;;;;;;8.57;3.25;;;17.70;99.90;;;;;;5051316;28;20504;-69
2023/07/16 07:28:18;;;;;;;8.68;4.10;;;17.70;99.90;;;;;;5043466;28;20059;-69
2023/07/16 07:30:44;;;;;;;10.50;3.00;;;17.70;99.90;;;;;;5041934;28;20465;-69
2023/07/16 07:33:10;;;;;;;12.68;4.25;;;17.70;99.90;;;;;;5023573;28;20037;-69
2023/07/16 07:35:36;;;;;;;8.70;3.53;;;17.60;99.90;;;;;;5032845;28;20052;-69
2023/07/16 07:38:02;;;;;;;9.73;3.45;;;17.60;99.90;;;;;;5042231;28;20040;-69
2023/07/16 07:40:28;;;;;;;9.70;3.83;;;17.60;99.90;;;;;;5039439;28;20053;-69
2023/07/16 07:42:53;;;;;;;6.55;3.55;;;17.60;99.90;;;;;;5038986;28;20068;-69
2023/07/16 07:45:19;;;;;;;8.23;3.60;;;17.60;99.90;;;;;;5051091;28;20037;-69
2023/07/16 07:47:45;;;;;;;11.80;3.70;;;17.60;99.90;;;;;;5033128;28;20041;-69
2023/07/16 07:50:11;;;;;;;8.38;3.70;;;17.70;99.90;;;;;;5025715;28;20045;-69
2023/07/16 07:52:37;;;;;;;7.18;3.28;;;17.70;99.90;;;;;;5045372;28;20128;-69
2023/07/16 07:55:03;;;;;;;9.73;3.53;;;17.60;99.90;;;;;;5031804;28;20132;-68
2023/07/16 07:57:29;;;;;;;10.40;3.85;;;17.60;99.90;;;;;;5024707;28;20395;-68
2023/07/16 07:59:58;;;;;;;8.35;3.35;;;17.60;99.90;;;;;;5016579;28;20045;-68
2023/07/16 08:02:24;;;;;;;9.88;4.07;;;17.50;99.90;;;;;;5033005;28;20041;-68
2023/07/16 08:04:52;;;;;;;9.60;3.95;;;17.40;99.90;;;;;;5050838;28;20128;-68
2023/07/16 08:07:18;;;;;;;6.65;3.13;;;17.40;99.90;;;;;;5021495;28;20307;-68
2023/07/16 08:09:43;;;;;;;10.45;3.78;;;17.40;99.90;;;;;;5042169;28;20264;-68
2023/07/16 08:12:09;;;;;;;9.02;4.00;;;17.40;99.90;;;;;;5050094;28;20045;-68
2023/07/16 08:14:35;;;;;;;9.77;3.65;;;17.40;99.90;;;;;;5029426;28;20171;-69
2023/07/16 08:17:00;;;;;;;12.70;4.22;;;17.40;99.90;;;;;;5047945;28;20403;-68
2023/07/16 08:19:26;;;;;;;11.88;3.63;;;17.40;99.90;;;;;;5027631;28;20056;-69
2023/07/16 08:21:52;;;;;;;10.77;3.97;;;17.40;99.90;;;;;;5046194;28;20045;-69
2023/07/16 08:24:18;;;;;;;19.48;4.30;;;17.40;99.90;;;;;;5042414;28;20071;-69
2023/07/16 08:26:43;;;;;;;9.00;4.07;;;17.50;99.90;;;;;;5032245;28;20236;-68
2023/07/16 08:29:09;;;;;;;8.68;4.25;;;17.50;99.90;;;;;;5049847;28;20179;-68
2023/07/16 08:31:35;;;;;;;6.45;3.50;;;17.60;99.90;;;;;;5023788;28;20096;-69
2023/07/16 08:34:00;;;;;;;12.98;3.53;;;17.60;99.90;;;;;;5031996;28;20040;-68
2023/07/16 08:36:26;;;;;;;11.75;4.82;;;17.70;99.90;;;;;;5049980;28;20049;-69
2023/07/16 08:38:52;;;;;;;9.90;3.80;;;17.70;99.90;;;;;;5031907;28;20099;-69
2023/07/16 08:41:18;;;;;;;12.65;4.30;;;17.80;99.90;;;;;;5043127;28;20193;-69
2023/07/16 08:43:49;;;;;;;10.48;4.00;;;17.90;99.90;;;;;;5031264;28;20499;-69
2023/07/16 08:46:18;;;;;;;14.73;4.05;;;18.00;99.90;;;;;;5047443;28;20131;-69
2023/07/16 08:48:45;;;;;;;9.45;4.60;;;18.20;99.90;;;;;;5026500;28;20049;-69
2023/07/16 08:51:15;;;;;;;12.45;4.28;;;18.40;99.90;;;;;;5031517;28;20059;-69
2023/07/16 08:53:40;;;;;;;8.35;3.90;;;18.50;99.90;;;;;;5031410;28;20049;-68
2023/07/16 08:56:06;;;;;;;9.73;4.05;;;18.60;99.90;;;;;;5049082;28;20106;-68
2023/07/16 08:58:32;;;;;;;11.48;3.92;;;18.70;99.90;;;;;;5027389;28;20049;-69
2023/07/16 09:01:00;;;;;;;9.93;4.18;;;18.80;99.90;;;;;;5031731;28;20045;-69
2023/07/16 09:03:26;;;;;;;8.15;3.40;;;18.90;99.90;;;;;;5041494;28;20325;-69
2023/07/16 09:05:53;;;;;;;12.85;4.50;;;18.90;99.90;;;;;;5027786;28;20103;-68
2023/07/16 09:08:19;;;;;;;10.43;4.10;;;18.80;99.90;;;;;;5030534;28;20107;-69
2023/07/16 09:10:57;;;;;;;9.63;3.45;;;18.70;99.90;;;;;;5044721;28;20045;-68
2023/07/16 09:13:27;;;;;;;10.55;3.50;;;18.50;99.90;;;;;;5048962;28;20045;-68
2023/07/16 09:15:58;;;;;;;9.73;4.00;;;18.50;99.90;;;;;;5046340;28;20430;-69
2023/07/16 09:18:26;;;;;;;7.80;3.90;;;18.60;99.90;;;;;;5031150;28;20049;-69
2023/07/16 09:21:01;;;;;;;7.57;3.42;;;18.60;99.90;;;;;;5048050;28;20082;-69
2023/07/16 09:23:27;;;;;;;9.00;3.55;;;18.70;99.90;;;;;;5038449;28;20041;-69
2023/07/16 09:25:54;;;;;;;;;;;18.70;99.90;;;;;;5049271;28;20406;-68
2023/07/16 09:28:20;;;;;;;11.82;3.55;;;18.70;99.90;;;;;;5029949;28;20345;-68
2023/07/16 09:30:46;;;;;;;6.13;3.03;;;18.60;99.90;;;;;;5041727;28;20041;-69
2023/07/16 09:33:22;;;;;;;8.52;3.13;;;18.60;99.90;;;;;;5042299;28;20067;-68
2023/07/16 09:35:50;;;;;;;8.80;3.97;;;18.60;99.90;;;;;;5030909;28;20236;-68
2023/07/16 09:38:16;;;;;;;9.25;3.38;;;18.60;99.90;;;;;;5045802;28;20123;-69
2023/07/16 09:40:44;;;;;;;;;;;18.70;99.90;;;;;;5043434;28;20045;-69
2023/07/16 09:43:12;;;;;;;7.00;3.30;;;18.80;99.90;;;;;;5040698;28;20400;-68
2023/07/16 09:45:38;;;;;;;11.60;3.75;;;18.90;99.90;;;;;;5030219;28;20060;-69
2023/07/16 09:48:03;;;;;;;;;;;19.20;99.90;;;;;;5031058;28;20048;-68
2023/07/16 09:50:32;;;;;;;8.13;3.42;;;19.30;99.90;;;;;;5027462;28;19917;-69
2023/07/16 09:52:58;;;;;;;9.43;3.35;;;19.40;99.90;;;;;;5047798;28;20036;-68
2023/07/16 09:55:24;;;;;;;10.13;3.15;;;19.40;99.90;;;;;;5029275;28;20067;-69
2023/07/16 09:57:56;;;;;;;8.77;3.13;;;19.20;99.90;;;;;;5037943;28;20125;-69
2023/07/16 10:00:23;;;;;;;7.88;3.22;;;19.20;99.90;;;;;;5046405;28;20106;-69
2023/07/16 10:02:54;;;;;;;6.30;3.35;;;19.20;99.90;;;;;;5047654;28;20041;-69
2023/07/16 10:05:25;;;;;;;9.93;3.78;;;19.20;99.90;;;;;;5029178;28;20032;-68
2023/07/16 10:08:00;;;;;;;7.20;3.17;;;19.20;99.90;;;;;;5043741;28;20400;-69
2023/07/16 10:10:40;;;;;;;8.88;3.42;;;19.40;99.90;;;;;;5046525;28;20123;-69
2023/07/16 10:13:08;;;;;;;7.47;3.58;;;19.40;99.90;;;;;;5027802;28;20088;-69
2023/07/16 10:15:33;;;;;;;6.22;3.33;;;19.40;99.90;;;;;;5048168;28;20047;-69
2023/07/16 10:17:59;;;;;;;9.65;3.65;;;19.40;99.90;;;;;;5020866;28;20045;-68
2023/07/16 10:20:42;;;;;;;10.00;3.47;;;19.30;99.90;;;;;;5029694;28;20130;-69
2023/07/16 10:23:12;;;;;;;10.77;3.75;;;19.20;99.90;;;;;;5026918;28;20037;-69
2023/07/16 10:25:38;;;;;;;7.47;3.80;;;19.20;99.90;;;;;;5046727;28;20045;-69
2023/07/16 10:28:04;;;;;;;7.85;3.80;;;19.20;99.90;;;;;;5028674;28;20437;-69
2023/07/16 10:30:31;;;;;;;7.82;3.85;;;19.20;99.90;;;;;;5047436;28;20153;-69
2023/07/16 10:32:57;;;;;;;10.40;3.92;;;19.20;99.90;;;;;;5030040;28;20045;-69
2023/07/16 10:35:22;;;;;;;7.70;3.35;;;19.20;99.90;;;;;;5047381;28;20414;-68
2023/07/16 10:37:48;;;;;;;9.95;3.53;;;19.40;99.90;;;;;;5047952;28;20049;-68
2023/07/16 10:40:15;;;;;;;9.90;4.38;;;19.40;99.90;;;;;;5044351;28;20471;-69
2023/07/16 10:42:46;;;;;;;9.52;3.67;;;19.50;99.90;;;;;;5029377;28;20040;-69
2023/07/16 10:45:12;;;;;;;8.98;3.13;;;19.60;99.90;;;;;;5038377;28;20044;-69
2023/07/16 10:47:40;;;;;;;10.98;3.45;;;19.60;99.90;;;;;;5027462;28;20137;-69
2023/07/16 10:50:09;;;;;;;10.18;3.67;;;19.70;99.90;;;;;;5043037;28;20068;-69
2023/07/16 10:52:36;;;;;;;9.05;3.55;;;19.70;99.90;;;;;;5029559;28;20116;-68
2023/07/16 10:55:02;;;;;;;7.80;3.45;;;19.80;99.90;;;;;;5028892;28;20079;-69
2023/07/16 10:57:28;;;;;;;9.30;3.70;;;19.70;99.90;;;;;;5010282;28;20064;-69
2023/07/16 10:59:57;;;;;;;6.10;2.72;;;19.70;99.90;;;;;;5029884;28;20071;-68
2023/07/16 11:02:24;;;;;;;8.60;2.63;;;19.80;99.90;;;;;;5044976;28;20092;-69
2023/07/16 11:04:53;;;;;;;7.03;2.83;;;19.80;99.90;;;;;;5045929;28;20379;-69
2023/07/16 11:07:19;;;;;;;10.32;2.95;;;19.80;99.90;;;;;;5038132;28;20033;-69
2023/07/16 11:09:48;;;;;;;7.70;3.33;;;19.70;99.90;;;;;;5042212;28;20080;-68
2023/07/16 11:12:19;;;;;;;8.27;2.95;;;19.70;99.90;;;;;;5043542;28;20074;-69
2023/07/16 11:14:47;;;;;;;9.93;2.97;;;19.50;99.90;;;;;;5025391;28;20562;-69
2023/07/16 11:17:13;;;;;;;7.65;3.50;;;19.40;99.90;;;;;;5044179;28;20037;-68
2023/07/16 11:19:39;;;;;;;6.00;3.20;;;19.40;99.90;;;;;;5047468;28;20037;-68
2023/07/16 11:22:07;;;;;;;8.02;3.50;;;19.60;99.90;;;;;;5027239;28;20041;-69
2023/07/16 11:24:44;;;;;;;8.27;2.35;;;19.70;99.90;;;;;;5019253;28;20098;-69
2023/07/16 11:27:42;;;;;;;10.98;2.55;;;19.90;99.90;;;;;;5029369;28;20535;-68
2023/07/16 11:30:09;;;;;;;5.18;1.98;;;20.00;99.90;;;;;;5021238;28;20128;-68
2023/07/16 11:32:46;;;;;;;6.80;2.13;;;20.10;99.90;;;;;;5042997;28;20114;-69
2023/07/16 11:35:17;;;;;;;7.82;2.15;;;20.00;99.90;;;;;;5026093;28;20051;-69
2023/07/16 11:37:43;;;;;;;7.60;1.90;;;20.10;99.90;;;;;;5047337;28;20041;-69
2023/07/16 11:40:11;;;;;;;5.68;1.75;;;20.30;99.90;;;;;;5026947;28;20125;-69
2023/07/16 11:42:39;;;;;;;8.68;2.13;;;20.40;99.90;;;;;;5047452;28;20116;-69
2023/07/16 11:45:15;;;;;;;6.72;2.10;;;20.60;99.90;;;;;;5028118;28;20124;-68
2023/07/16 11:47:41;;;;;;;3.75;1.58;;;20.70;99.90;;;;;;5041795;28;20039;-69
2023/07/16 11:50:07;;;;;;;4.88;2.03;;;20.90;99.90;;;;;;5044486;28;20041;-68
2023/07/16 11:52:33;;;;;;;7.85;2.45;;;20.90;99.90;;;;;;5042769;28;20037;-69
2023/07/16 11:54:59;;;;;;;18.60;3.83;;;20.90;99.90;;;;;;5032585;28;20040;-69
2023/07/16 11:57:25;;;;;;;7.75;2.90;;;20.90;99.90;;;;;;5047808;28;20450;-69
2023/07/16 11:59:51;;;;;;;;;;;20.90;99.90;;;;;;5045406;28;20036;-68
2023/07/16 12:02:17;;;;;;;8.88;2.95;;;20.80;99.90;;;;;;5032337;28;19986;-69
2023/07/16 12:04:43;;;;;;;7.07;2.65;;;20.80;99.90;;;;;;5028679;28;20072;-69
2023/07/16 12:07:09;;;;;;;9.30;3.00;;;20.70;99.90;;;;;;5049939;28;20040;-69
2023/07/16 12:09:35;;;;;;;5.80;3.20;;;20.80;99.90;;;;;;5022678;28;20047;-69
2023/07/16 12:12:01;;;;;;;7.90;2.70;;;20.80;99.90;;;;;;5034638;28;20076;-68
2023/07/16 12:14:27;;;;;;;8.77;2.90;;;20.80;99.90;;;;;;5049192;28;20199;-69
2023/07/16 12:16:53;;;;;;;7.68;2.50;;;20.70;99.90;;;;;;5016020;28;20184;-69
2023/07/16 12:19:18;;;;;;;9.70;3.33;;;20.70;99.90;;;;;;5049092;28;20499;-69
2023/07/16 12:21:44;;;;;;;11.18;2.65;;;20.60;99.90;;;;;;5048520;28;20052;-69
2023/07/16 12:24:10;;;;;;;7.07;2.65;;;20.60;99.90;;;;;;5032536;28;20044;-68
2023/07/16 12:26:37;;;;;;;7.47;2.63;;;20.50;99.90;;;;;;5042345;28;20086;-69
2023/07/16 12:29:03;;;;;;;12.32;2.60;;;20.50;99.90;;;;;;5037861;28;20104;-69
2023/07/16 12:31:33;;;;;;;8.55;3.30;;;20.60;99.90;;;;;;5049957;28;20049;-68
2023/07/16 12:34:01;;;;;;;10.45;3.17;;;20.60;99.90;;;;;;5049666;28;20280;-69
2023/07/16 12:36:27;;;;;;;10.13;3.25;;;20.60;99.90;;;;;;5015699;28;20044;-69
2023/07/16 12:38:53;;;;;;;5.47;2.75;;;20.50;99.90;;;;;;5042284;28;20037;-69
2023/07/16 12:41:18;;;;;;;9.07;2.92;;;20.40;99.90;;;;;;5027741;28;20038;-69
2023/07/16 12:43:44;;;;;;;6.35;2.58;;;20.20;99.90;;;;;;5031399;28;20037;-69
2023/07/16 12:46:10;;;;;;;8.90;2.75;;;20.10;99.90;;;;;;5047617;28;20049;-68